createdAt,value
2018-11-06T00:02:20.127Z,9.65
2018-11-06T00:04:53.988Z,9.66
2018-11-06T00:07:22.263Z,9.74
2018-11-06T00:09:50.555Z,9.77
2018-11-06T00:12:18.824Z,9.79
2018-11-06T00:14:47.046Z,9.87
2018-11-06T00:17:15.375Z,9.83
2018-11-06T00:19:43.634Z,9.86
2018-11-06T00:22:12.119Z,9.89
2018-11-06T00:24:40.337Z,9.68
2018-11-06T00:27:08.764Z,9.39
2018-11-06T00:29:37.097Z,9.44
2018-11-06T00:32:05.215Z,9.45
2018-11-06T00:34:33.509Z,9.33
2018-11-06T00:37:01.969Z,9.30
2018-11-06T00:39:30.223Z,9.34
2018-11-06T00:41:58.302Z,9.43
2018-11-06T00:44:26.554Z,9.48
2018-11-06T00:46:54.671Z,9.52
2018-11-06T00:49:23.186Z,9.43
2018-11-06T00:51:51.423Z,9.51
2018-11-06T00:54:19.871Z,9.52
2018-11-06T00:56:48.012Z,9.46
2018-11-06T00:59:16.159Z,9.59
2018-11-06T01:01:44.318Z,9.11
2018-11-06T01:04:14.276Z,8.94
2018-11-06T01:06:42.579Z,9.06
2018-11-06T01:09:13.115Z,9.21
2018-11-06T01:11:42.342Z,9.40
2018-11-06T01:14:10.119Z,9.49
2018-11-06T01:16:39.046Z,9.56
2018-11-06T01:19:07.984Z,9.54
2018-11-06T01:21:36.283Z,9.77
2018-11-06T01:24:04.355Z,9.96
2018-11-06T01:26:32.890Z,9.37
2018-11-06T01:29:01.404Z,9.46
2018-11-06T01:31:29.407Z,9.50
2018-11-06T01:33:57.903Z,9.36
2018-11-06T01:36:26.139Z,9.17
2018-11-06T01:38:54.595Z,8.84
2018-11-06T01:41:22.939Z,8.72
2018-11-06T01:43:51.399Z,8.98
2018-11-06T01:46:19.623Z,8.91
2018-11-06T01:48:47.915Z,8.99
2018-11-06T01:51:16.216Z,9.07
2018-11-06T01:53:44.111Z,9.41
2018-11-06T01:56:12.569Z,9.35
2018-11-06T01:58:40.787Z,9.61
2018-11-06T02:01:09.089Z,9.66
2018-11-06T02:03:37.460Z,9.91
2018-11-06T02:06:05.871Z,9.62
2018-11-06T02:08:34.306Z,9.61
2018-11-06T02:11:02.460Z,9.47
2018-11-06T02:13:30.709Z,9.79
2018-11-06T02:15:59.184Z,9.82
2018-11-06T02:18:27.463Z,10.15
2018-11-06T02:20:55.951Z,10.05
2018-11-06T02:23:24.185Z,9.86
2018-11-06T02:25:52.484Z,10.21
2018-11-06T02:28:20.764Z,10.08
2018-11-06T02:30:48.986Z,10.00
2018-11-06T02:33:17.102Z,10.36
2018-11-06T02:35:45.391Z,10.25
2018-11-06T02:38:13.806Z,9.93
2018-11-06T02:40:41.951Z,9.72
2018-11-06T02:43:10.189Z,9.79
2018-11-06T02:45:38.694Z,9.99
2018-11-06T02:48:07.148Z,10.03
2018-11-06T02:50:35.426Z,10.33
2018-11-06T02:53:04.827Z,10.20
2018-11-06T02:55:33.219Z,10.76
2018-11-06T02:58:01.448Z,10.91
2018-11-06T03:00:29.720Z,10.57
2018-11-06T03:02:57.854Z,10.44
2018-11-06T03:05:26.313Z,10.57
2018-11-06T03:07:54.587Z,10.66
2018-11-06T03:10:22.947Z,10.27
2018-11-06T03:12:51.319Z,10.44
2018-11-06T03:15:19.387Z,10.51
2018-11-06T03:17:47.503Z,10.61
2018-11-06T03:20:15.725Z,10.54
2018-11-06T03:22:44.279Z,10.65
2018-11-06T03:25:12.604Z,10.88
2018-11-06T03:27:40.859Z,10.53
2018-11-06T03:30:11.422Z,10.30
2018-11-06T03:32:40.005Z,10.54
2018-11-06T03:35:09.015Z,10.86
2018-11-06T03:37:36.947Z,11.02
2018-11-06T03:40:05.496Z,11.07
2018-11-06T03:42:33.716Z,11.23
2018-11-06T03:45:02.201Z,11.38
2018-11-06T03:47:30.490Z,11.12
2018-11-06T03:49:58.859Z,11.30
2018-11-06T03:52:27.264Z,11.44
2018-11-06T03:54:55.543Z,11.34
2018-11-06T03:57:23.957Z,11.46
2018-11-06T03:59:52.443Z,11.54
2018-11-06T04:02:20.599Z,11.68
2018-11-06T04:04:49.040Z,11.82
2018-11-06T04:07:17.270Z,11.59
2018-11-06T04:09:45.639Z,11.59
2018-11-06T04:12:13.839Z,11.66
2018-11-06T04:14:42.295Z,11.32
2018-11-06T04:17:10.599Z,11.31
2018-11-06T04:19:39.059Z,11.47
2018-11-06T04:22:07.134Z,11.35
2018-11-06T04:24:35.263Z,11.34
2018-11-06T04:27:03.771Z,11.35
2018-11-06T04:29:31.819Z,11.31
2018-11-06T04:32:00.291Z,11.41
2018-11-06T04:34:28.575Z,11.42
2018-11-06T04:36:56.990Z,11.43
2018-11-06T04:39:25.142Z,11.50
2018-11-06T04:41:53.195Z,11.38
2018-11-06T04:44:21.439Z,11.07
2018-11-06T04:46:49.747Z,11.00
2018-11-06T04:49:18.392Z,10.85
2018-11-06T04:51:46.630Z,10.98
2018-11-06T04:54:14.735Z,10.84
2018-11-06T04:56:43.227Z,10.99
2018-11-06T04:59:11.787Z,10.81
2018-11-06T05:01:39.999Z,10.85
2018-11-06T05:04:08.548Z,10.86
2018-11-06T05:06:36.729Z,10.94
2018-11-06T05:09:06.987Z,11.05
2018-11-06T05:11:35.340Z,11.17
2018-11-06T05:14:03.735Z,10.77
2018-11-06T05:16:32.108Z,10.55
2018-11-06T05:19:00.208Z,10.80
2018-11-06T05:21:28.546Z,10.82
2018-11-06T05:23:56.755Z,10.56
2018-11-06T05:26:25.207Z,10.49
2018-11-06T05:28:53.314Z,10.13
2018-11-06T05:31:21.615Z,10.36
2018-11-06T05:33:50.027Z,10.48
2018-11-06T05:36:18.069Z,10.66
2018-11-06T05:38:46.255Z,10.85
2018-11-06T05:41:14.659Z,10.77
2018-11-06T05:43:42.791Z,10.73
2018-11-06T05:46:11.228Z,10.71
2018-11-06T05:48:39.311Z,10.72
2018-11-06T05:51:07.856Z,10.65
2018-11-06T05:53:36.034Z,10.42
2018-11-06T05:56:04.531Z,10.45
2018-11-06T05:58:32.785Z,10.75
2018-11-06T06:01:01.133Z,10.86
2018-11-06T06:03:29.336Z,10.77
2018-11-06T06:05:57.639Z,10.76
2018-11-06T06:08:25.927Z,10.91
2018-11-06T06:10:54.225Z,11.15
2018-11-06T06:13:22.644Z,10.96
2018-11-06T06:15:50.910Z,10.99
2018-11-06T06:18:19.184Z,10.92
2018-11-06T06:20:47.491Z,10.99
2018-11-06T06:23:15.702Z,11.05
2018-11-06T06:25:43.786Z,11.04
2018-11-06T06:28:12.177Z,11.27
2018-11-06T06:30:40.576Z,11.40
2018-11-06T06:33:08.875Z,11.08
2018-11-06T06:35:37.342Z,10.99
2018-11-06T06:38:05.619Z,11.12
2018-11-06T06:40:34.092Z,11.24
2018-11-06T06:43:02.587Z,11.30
2018-11-06T06:45:30.876Z,11.35
2018-11-06T06:47:59.119Z,11.46
2018-11-06T06:50:27.631Z,11.71
2018-11-06T06:52:55.895Z,11.62
2018-11-06T06:55:24.358Z,11.42
2018-11-06T06:57:52.390Z,11.64
2018-11-06T07:00:22.160Z,11.60
2018-11-06T07:02:50.200Z,11.67
2018-11-06T07:05:21.683Z,11.70
2018-11-06T07:07:49.847Z,11.22
2018-11-06T07:10:19.594Z,11.18
2018-11-06T07:12:48.207Z,11.08
2018-11-06T07:15:17.739Z,11.10
2018-11-06T07:17:47.069Z,11.06
2018-11-06T07:20:18.606Z,11.06
2018-11-06T07:22:47.094Z,11.07
2018-11-06T07:25:15.696Z,10.98
2018-11-06T07:27:44.980Z,10.83
2018-11-06T07:30:15.555Z,11.07
2018-11-06T07:32:44.115Z,11.11
2018-11-06T07:35:13.136Z,11.24
2018-11-06T07:37:41.786Z,11.45
2018-11-06T07:40:12.271Z,11.33
2018-11-06T07:42:40.319Z,11.23
2018-11-06T07:45:11.968Z,11.66
2018-11-06T07:47:40.146Z,11.46
2018-11-06T07:50:08.937Z,11.10
2018-11-06T07:52:37.645Z,11.00
2018-11-06T07:55:07.071Z,11.29
2018-11-06T07:57:35.390Z,10.81
2018-11-06T08:00:03.792Z,11.09
2018-11-06T08:02:37.343Z,11.31
2018-11-06T08:05:05.615Z,11.24
2018-11-06T08:07:33.932Z,11.28
2018-11-06T08:10:02.204Z,11.20
2018-11-06T08:12:30.709Z,11.39
2018-11-06T08:14:58.926Z,11.21
2018-11-06T08:17:27.185Z,11.49
2018-11-06T08:19:54.900Z,11.44
2018-11-06T08:22:22.584Z,11.32
2018-11-06T08:24:50.779Z,11.60
2018-11-06T08:27:19.019Z,11.51
2018-11-06T08:29:47.138Z,11.83
2018-11-06T08:32:16.084Z,11.55
2018-11-06T08:34:43.831Z,11.68
2018-11-06T08:37:12.023Z,11.57
2018-11-06T08:39:40.220Z,11.53
2018-11-06T08:42:08.683Z,11.84
2018-11-06T08:44:36.972Z,12.04
2018-11-06T08:47:05.486Z,11.88
2018-11-06T08:49:33.623Z,11.39
2018-11-06T08:52:01.825Z,11.51
2018-11-06T08:54:29.790Z,11.27
2018-11-06T08:56:58.115Z,11.78
2018-11-06T08:59:26.432Z,12.01
2018-11-06T09:01:54.935Z,12.13
2018-11-06T09:04:28.493Z,12.38
2018-11-06T09:06:56.795Z,12.38
2018-11-06T09:09:25.079Z,12.60
2018-11-06T09:11:53.496Z,12.66
2018-11-06T09:14:21.659Z,12.28
2018-11-06T09:16:50.144Z,12.47
2018-11-06T09:19:18.334Z,12.48
2018-11-06T09:21:47.518Z,12.17
2018-11-06T09:24:15.736Z,12.45
2018-11-06T09:26:44.227Z,12.13
2018-11-06T09:29:12.504Z,12.18
2018-11-06T09:31:40.967Z,12.68
2018-11-06T09:34:09.176Z,13.02
2018-11-06T09:36:37.601Z,13.22
2018-11-06T09:39:08.444Z,13.48
2018-11-06T09:41:36.740Z,13.38
2018-11-06T09:44:04.832Z,12.98
2018-11-06T09:46:33.093Z,12.94
2018-11-06T09:49:01.359Z,12.92
2018-11-06T09:51:29.652Z,13.04
2018-11-06T09:53:57.906Z,13.07
2018-11-06T09:56:26.224Z,13.12
2018-11-06T09:58:54.682Z,13.26
2018-11-06T10:01:22.924Z,13.25
2018-11-06T10:03:51.239Z,13.52
2018-11-06T10:06:19.528Z,13.41
2018-11-06T10:08:47.930Z,13.49
2018-11-06T10:11:16.319Z,13.66
2018-11-06T10:13:44.556Z,13.87
2018-11-06T10:16:13.002Z,13.41
2018-11-06T10:18:41.344Z,13.39
2018-11-06T10:21:09.833Z,13.58
2018-11-06T10:23:37.964Z,13.34
2018-11-06T10:26:06.139Z,13.53
2018-11-06T10:28:34.227Z,13.48
2018-11-06T10:31:02.495Z,13.10
2018-11-06T10:33:30.776Z,12.83
2018-11-06T10:35:58.915Z,12.91
2018-11-06T10:38:27.168Z,12.96
2018-11-06T10:40:55.406Z,12.56
2018-11-06T10:43:23.704Z,12.53
2018-11-06T10:45:52.146Z,12.98
2018-11-06T10:48:20.611Z,13.01
2018-11-06T10:50:48.867Z,13.17
2018-11-06T10:53:17.323Z,13.56
2018-11-06T10:55:45.911Z,13.50
2018-11-06T10:58:14.210Z,13.31
2018-11-06T11:00:48.329Z,13.25
2018-11-06T11:03:22.296Z,13.62
2018-11-06T11:05:50.448Z,13.66
2018-11-06T11:08:18.862Z,13.85
2018-11-06T11:10:46.951Z,13.97
2018-11-06T11:13:15.317Z,14.16
2018-11-06T11:15:43.683Z,14.23
2018-11-06T11:18:11.775Z,14.37
2018-11-06T11:20:40.084Z,14.69
2018-11-06T11:23:08.539Z,15.00
2018-11-06T11:25:37.132Z,15.11
2018-11-06T11:28:05.344Z,15.35
2018-11-06T11:30:33.561Z,15.41
2018-11-06T11:33:01.837Z,15.43
2018-11-06T11:35:30.189Z,15.06
2018-11-06T11:37:57.968Z,14.94
2018-11-06T11:40:26.270Z,14.47
2018-11-06T11:42:54.736Z,15.07
2018-11-06T11:45:23.008Z,14.92
2018-11-06T11:47:51.475Z,14.53
2018-11-06T11:50:19.428Z,14.64
2018-11-06T11:52:47.643Z,14.81
2018-11-06T11:55:16.006Z,14.81
2018-11-06T11:57:44.014Z,15.36
2018-11-06T12:00:17.695Z,15.59
2018-11-06T12:02:45.867Z,15.32
2018-11-06T12:05:14.337Z,15.22
2018-11-06T12:07:42.579Z,14.95
2018-11-06T12:10:11.494Z,15.39
2018-11-06T12:12:39.930Z,14.84
2018-11-06T12:15:09.894Z,14.84
2018-11-06T12:17:38.249Z,15.16
2018-11-06T12:20:06.508Z,16.15
2018-11-06T12:22:34.760Z,15.43
2018-11-06T12:25:03.224Z,15.39
2018-11-06T12:27:31.499Z,15.19
2018-11-06T12:29:59.743Z,14.82
2018-11-06T12:32:28.031Z,15.18
2018-11-06T12:34:56.107Z,14.84
2018-11-06T12:37:24.387Z,14.97
2018-11-06T12:39:52.920Z,14.94
2018-11-06T12:42:21.295Z,15.55
2018-11-06T12:44:49.608Z,16.06
2018-11-06T12:47:17.921Z,15.46
2018-11-06T12:49:45.661Z,15.41
2018-11-06T12:52:14.039Z,15.83
2018-11-06T12:54:42.351Z,15.84
2018-11-06T12:57:10.612Z,15.97
2018-11-06T12:59:39.068Z,15.47
2018-11-06T13:02:07.371Z,15.43
2018-11-06T13:04:35.449Z,15.21
2018-11-06T13:07:03.767Z,15.28
2018-11-06T13:09:32.166Z,15.70
2018-11-06T13:12:00.460Z,15.82
2018-11-06T13:14:28.723Z,15.72
2018-11-06T13:16:57.020Z,16.02
2018-11-06T13:19:25.543Z,15.98
2018-11-06T13:21:53.727Z,15.40
2018-11-06T13:24:21.636Z,15.17
2018-11-06T13:26:49.894Z,15.08
2018-11-06T13:29:18.136Z,15.59
2018-11-06T13:31:46.252Z,15.30
2018-11-06T13:34:14.530Z,15.55
2018-11-06T13:36:42.617Z,15.53
2018-11-06T13:39:12.869Z,15.41
2018-11-06T13:41:41.690Z,14.95
2018-11-06T13:44:10.329Z,14.48
2018-11-06T13:46:38.207Z,14.15
2018-11-06T13:49:06.232Z,14.37
2018-11-06T13:51:34.700Z,14.89
2018-11-06T13:54:02.936Z,14.30
2018-11-06T13:56:31.350Z,13.86
2018-11-06T13:58:59.455Z,14.13
2018-11-06T14:01:27.807Z,14.19
2018-11-06T14:03:56.196Z,14.03
2018-11-06T14:06:24.324Z,14.14
2018-11-06T14:08:52.471Z,14.29
2018-11-06T14:11:20.707Z,14.16
2018-11-06T14:13:49.164Z,13.92
2018-11-06T14:16:17.410Z,13.97
2018-11-06T14:18:45.775Z,13.90
2018-11-06T14:21:13.843Z,14.21
2018-11-06T14:23:42.121Z,14.04
2018-11-06T14:26:10.565Z,14.08
2018-11-06T14:28:39.027Z,13.67
2018-11-06T14:31:07.141Z,13.46
2018-11-06T14:33:35.455Z,13.63
2018-11-06T14:36:03.875Z,13.85
2018-11-06T14:38:32.077Z,13.84
2018-11-06T14:41:00.430Z,13.77
2018-11-06T14:43:28.204Z,13.75
2018-11-06T14:45:56.205Z,13.58
2018-11-06T14:48:24.856Z,13.43
2018-11-06T14:50:53.156Z,13.85
2018-11-06T14:53:21.395Z,13.73
2018-11-06T14:55:49.779Z,13.83
2018-11-06T14:58:18.010Z,13.88
2018-11-06T15:00:46.437Z,13.63
2018-11-06T15:03:14.575Z,13.92
2018-11-06T15:05:42.659Z,14.16
2018-11-06T15:08:11.117Z,14.08
2018-11-06T15:10:39.359Z,14.12
2018-11-06T15:13:07.574Z,14.04
2018-11-06T15:15:35.691Z,14.25
2018-11-06T15:18:04.173Z,14.10
2018-11-06T15:20:32.463Z,14.20
2018-11-06T15:23:01.016Z,14.26
2018-11-06T15:25:29.362Z,14.34
2018-11-06T15:27:57.489Z,14.29
2018-11-06T15:30:25.779Z,14.33
2018-11-06T15:32:54.227Z,14.33
2018-11-06T15:35:22.523Z,14.37
2018-11-06T15:37:50.248Z,14.46
2018-11-06T15:40:19.223Z,14.44
2018-11-06T15:42:47.036Z,14.41
2018-11-06T15:45:16.631Z,14.44
2018-11-06T15:47:45.388Z,14.58
2018-11-06T15:50:14.719Z,14.72
2018-11-06T15:52:43.755Z,14.45
2018-11-06T15:55:11.983Z,14.25
2018-11-06T15:57:40.498Z,14.16
2018-11-06T16:00:14.080Z,14.18
2018-11-06T16:02:42.502Z,14.30
2018-11-06T16:05:10.659Z,14.42
2018-11-06T16:07:38.906Z,14.52
2018-11-06T16:10:09.919Z,14.53
2018-11-06T16:12:37.716Z,14.37
2018-11-06T16:15:06.194Z,14.30
2018-11-06T16:17:34.294Z,14.44
2018-11-06T16:20:02.055Z,14.50
2018-11-06T16:22:30.304Z,14.57
2018-11-06T16:24:58.045Z,14.56
2018-11-06T16:27:25.827Z,14.43
2018-11-06T16:29:54.077Z,14.32
2018-11-06T16:32:22.512Z,14.41
2018-11-06T16:34:50.841Z,14.40
2018-11-06T16:37:19.667Z,14.27
2018-11-06T16:39:48.112Z,14.03
2018-11-06T16:42:16.591Z,13.80
2018-11-06T16:44:44.863Z,13.71
2018-11-06T16:47:13.375Z,13.80
2018-11-06T16:49:41.659Z,13.55
2018-11-06T16:52:10.207Z,13.14
2018-11-06T16:54:38.407Z,13.24
2018-11-06T16:57:06.741Z,13.50
2018-11-06T16:59:35.020Z,13.77
2018-11-06T17:02:03.074Z,13.92
2018-11-06T17:04:31.247Z,13.60
2018-11-06T17:06:59.576Z,13.25
2018-11-06T17:09:27.694Z,13.43
2018-11-06T17:11:56.136Z,13.26
2018-11-06T17:14:24.489Z,13.47
2018-11-06T17:16:52.895Z,13.79
2018-11-06T17:19:21.179Z,14.01
2018-11-06T17:21:49.452Z,14.18
2018-11-06T17:24:17.944Z,14.24
2018-11-06T17:26:46.427Z,14.36
2018-11-06T17:29:14.308Z,14.38
2018-11-06T17:31:42.076Z,14.49
2018-11-06T17:34:09.807Z,14.47
2018-11-06T17:36:38.332Z,14.34
2018-11-06T17:39:08.970Z,14.43
2018-11-06T17:41:36.867Z,14.49
2018-11-06T17:44:05.378Z,14.37
2018-11-06T17:46:33.619Z,14.31
2018-11-06T17:49:02.144Z,14.29
2018-11-06T17:51:30.163Z,14.25
2018-11-06T17:53:58.607Z,14.37
2018-11-06T17:56:26.997Z,14.46
2018-11-06T17:58:54.927Z,14.38
2018-11-06T18:01:22.639Z,14.34
2018-11-06T18:03:50.417Z,14.32
2018-11-06T18:06:18.201Z,14.30
2018-11-06T18:08:46.011Z,13.99
2018-11-06T18:11:13.755Z,13.87
2018-11-06T18:13:41.551Z,13.45
2018-11-06T18:16:09.296Z,13.54
2018-11-06T18:18:37.043Z,13.86
2018-11-06T18:21:05.256Z,13.92
2018-11-06T18:23:33.643Z,13.77
2018-11-06T18:26:01.892Z,13.86
2018-11-06T18:28:30.255Z,13.93
2018-11-06T18:30:58.480Z,14.05
2018-11-06T18:33:26.884Z,14.14
2018-11-06T18:35:55.266Z,14.00
2018-11-06T18:38:23.494Z,13.37
2018-11-06T18:40:51.185Z,13.40
2018-11-06T18:43:19.658Z,13.53
2018-11-06T18:45:47.721Z,13.64
2018-11-06T18:48:16.240Z,13.71
2018-11-06T18:50:44.544Z,13.86
2018-11-06T18:53:12.928Z,13.91
2018-11-06T18:55:41.053Z,14.09
2018-11-06T18:58:09.697Z,14.18
2018-11-06T19:00:37.424Z,14.16
2018-11-06T19:03:05.244Z,14.26
2018-11-06T19:05:33.714Z,14.30
2018-11-06T19:08:01.771Z,14.36
2018-11-06T19:10:29.874Z,14.43
2018-11-06T19:12:58.179Z,14.40
2018-11-06T19:15:26.443Z,14.34
2018-11-06T19:17:54.898Z,14.14
2018-11-06T19:20:23.207Z,14.31
2018-11-06T19:22:51.675Z,14.26
2018-11-06T19:25:19.959Z,14.13
2018-11-06T19:27:48.439Z,14.05
2018-11-06T19:30:17.910Z,14.12
2018-11-06T19:32:45.986Z,14.17
2018-11-06T19:35:14.592Z,14.26
2018-11-06T19:37:42.868Z,14.28
2018-11-06T19:40:12.424Z,14.30
2018-11-06T19:42:41.520Z,14.30
2018-11-06T19:45:10.223Z,14.29
2018-11-06T19:47:38.567Z,14.20
2018-11-06T19:50:08.472Z,14.21
2018-11-06T19:52:36.656Z,14.21
2018-11-06T19:55:05.563Z,14.30
2018-11-06T19:57:33.932Z,14.27
2018-11-06T20:00:02.161Z,14.28
2018-11-06T20:02:30.839Z,14.28
2018-11-06T20:04:59.139Z,14.29
2018-11-06T20:07:27.602Z,14.30
2018-11-06T20:09:56.036Z,14.29
2018-11-06T20:12:24.191Z,14.34
2018-11-06T20:14:52.469Z,14.34
2018-11-06T20:17:20.967Z,14.39
2018-11-06T20:19:50.071Z,14.43
2018-11-06T20:22:18.590Z,14.43
2018-11-06T20:24:47.050Z,14.43
2018-11-06T20:27:15.517Z,14.47
2018-11-06T20:29:44.643Z,14.21
2018-11-06T20:32:13.428Z,14.30
2018-11-06T20:34:41.771Z,14.34
2018-11-06T20:37:10.155Z,14.38
2018-11-06T20:39:38.703Z,14.33
2018-11-06T20:42:06.499Z,14.28
2018-11-06T20:44:34.698Z,14.19
2018-11-06T20:47:03.063Z,13.97
2018-11-06T20:49:31.713Z,13.75
2018-11-06T20:51:59.825Z,13.65
2018-11-06T20:54:28.088Z,13.56
2018-11-06T20:56:56.411Z,13.47
2018-11-06T20:59:24.674Z,13.45
2018-11-06T21:01:53.115Z,13.63
2018-11-06T21:04:20.976Z,13.78
2018-11-06T21:06:48.757Z,13.94
2018-11-06T21:09:16.940Z,14.10
2018-11-06T21:11:45.302Z,14.02
2018-11-06T21:14:13.456Z,13.92
2018-11-06T21:16:41.780Z,13.95
2018-11-06T21:19:09.530Z,14.02
2018-11-06T21:21:37.690Z,14.06
2018-11-06T21:24:05.844Z,14.01
2018-11-06T21:26:34.264Z,13.79
2018-11-06T21:29:02.498Z,13.98
2018-11-06T21:31:30.661Z,13.87
2018-11-06T21:33:59.190Z,13.53
2018-11-06T21:36:27.401Z,13.65
2018-11-06T21:38:55.787Z,13.74
2018-11-06T21:41:23.948Z,13.63
2018-11-06T21:43:52.016Z,13.75
2018-11-06T21:46:20.456Z,13.82
2018-11-06T21:48:48.567Z,13.89
2018-11-06T21:51:16.809Z,13.98
2018-11-06T21:53:45.284Z,14.05
2018-11-06T21:56:13.406Z,13.82
2018-11-06T21:58:41.812Z,13.72
2018-11-06T22:01:09.732Z,13.82
2018-11-06T22:03:38.035Z,13.70
2018-11-06T22:06:06.295Z,13.51
2018-11-06T22:08:34.559Z,13.48
2018-11-06T22:11:03.087Z,13.54
2018-11-06T22:13:31.458Z,13.67
2018-11-06T22:15:59.417Z,13.67
2018-11-06T22:18:27.662Z,13.49
2018-11-06T22:20:55.866Z,13.11
2018-11-06T22:23:23.966Z,12.98
2018-11-06T22:25:52.301Z,12.94
2018-11-06T22:28:20.776Z,13.04
2018-11-06T22:30:49.022Z,13.00
2018-11-06T22:33:17.350Z,12.99
2018-11-06T22:35:45.672Z,13.24
2018-11-06T22:38:13.883Z,13.27
2018-11-06T22:40:42.158Z,13.36
2018-11-06T22:43:10.590Z,13.01
2018-11-06T22:45:38.854Z,12.90
2018-11-06T22:48:06.865Z,13.13
2018-11-06T22:50:34.556Z,12.97
2018-11-06T22:53:02.374Z,13.01
2018-11-06T22:55:30.198Z,13.11
2018-11-06T22:57:57.907Z,13.24
2018-11-06T23:00:31.215Z,13.40
2018-11-06T23:02:58.959Z,13.23
2018-11-06T23:05:26.717Z,13.17
2018-11-06T23:07:59.834Z,13.27
2018-11-06T23:10:27.617Z,13.29
2018-11-06T23:12:55.352Z,13.36
2018-11-06T23:15:23.105Z,13.43
2018-11-06T23:17:50.879Z,13.48
2018-11-06T23:20:18.628Z,13.44
2018-11-06T23:22:46.351Z,13.29
2018-11-06T23:25:14.077Z,13.31
2018-11-06T23:27:41.876Z,13.18
2018-11-06T23:30:11.854Z,13.17
2018-11-06T23:32:39.627Z,12.99
2018-11-06T23:35:07.395Z,12.64
2018-11-06T23:37:35.156Z,12.61
2018-11-06T23:40:02.895Z,12.64
2018-11-06T23:42:31.370Z,12.59
2018-11-06T23:44:59.733Z,12.51
2018-11-06T23:47:28.243Z,12.45
2018-11-06T23:49:56.432Z,12.36
2018-11-06T23:52:24.743Z,12.29
2018-11-06T23:54:53.195Z,12.34
2018-11-06T23:57:21.452Z,12.49
2018-11-06T23:59:49.692Z,12.54
